createdAt,value
2023-04-21T00:00:15.854Z,16.17
2023-04-21T00:02:43.599Z,14.95
2023-04-21T00:05:12.585Z,11.95
2023-04-21T00:07:46.064Z,13.02
2023-04-21T00:10:13.811Z,12.73
2023-04-21T00:12:47.634Z,16.60
2023-04-21T00:15:15.163Z,10.98
2023-04-21T00:17:42.701Z,17.05
2023-04-21T00:20:11.691Z,11.52
2023-04-21T00:22:39.305Z,14.43
2023-04-21T00:25:08.064Z,15.82
2023-04-21T00:27:35.625Z,10.60
2023-04-21T00:30:08.099Z,12.82
2023-04-21T00:32:37.887Z,15.00
2023-04-21T00:35:06.188Z,16.52
2023-04-21T00:37:34.337Z,16.73
2023-04-21T00:40:01.956Z,12.55
2023-04-21T00:42:29.576Z,15.05
2023-04-21T00:44:57.485Z,14.63
2023-04-21T00:47:26.757Z,14.65
2023-04-21T00:49:54.876Z,15.50
2023-04-21T00:52:22.764Z,15.80
2023-04-21T00:54:50.766Z,13.70
2023-04-21T00:57:18.723Z,16.90
2023-04-21T00:59:46.375Z,12.98
2023-04-21T01:02:15.859Z,13.30
2023-04-21T01:04:45.722Z,13.98
2023-04-21T01:07:14.093Z,14.80
2023-04-21T01:09:41.833Z,13.10
2023-04-21T01:12:11.219Z,12.10
2023-04-21T01:14:41.915Z,13.30
2023-04-21T01:17:11.682Z,12.13
2023-04-21T01:19:45.758Z,17.63
2023-04-21T01:22:15.292Z,9.48
2023-04-21T01:24:44.681Z,11.30
2023-04-21T01:27:14.118Z,15.63
2023-04-21T01:29:43.719Z,12.95
2023-04-21T01:32:13.510Z,11.60
2023-04-21T01:34:43.780Z,10.75
2023-04-21T01:37:14.431Z,13.80
2023-04-21T01:39:44.964Z,15.50
2023-04-21T01:42:13.429Z,11.40
2023-04-21T01:44:43.807Z,14.02
2023-04-21T01:47:12.492Z,14.02
2023-04-21T01:49:40.555Z,12.70
2023-04-21T01:52:09.956Z,10.10
2023-04-21T01:54:37.651Z,14.18
2023-04-21T01:57:06.655Z,13.30
2023-04-21T01:59:34.467Z,14.95
2023-04-21T02:02:03.336Z,15.57
2023-04-21T02:04:34.374Z,13.73
2023-04-21T02:07:02.324Z,12.38
2023-04-21T02:09:30.187Z,13.07
2023-04-21T02:11:58.048Z,12.43
2023-04-21T02:14:27.326Z,10.77
2023-04-21T02:16:59.066Z,11.30
2023-04-21T02:19:29.527Z,12.82
2023-04-21T02:22:00.257Z,13.55
2023-04-21T02:24:27.916Z,13.32
2023-04-21T02:26:57.547Z,13.20
2023-04-21T02:29:26.654Z,14.13
2023-04-21T02:32:03.012Z,15.85
2023-04-21T02:34:38.784Z,14.52
2023-04-21T02:37:06.480Z,15.20
2023-04-21T02:39:34.062Z,13.32
2023-04-21T02:42:01.986Z,13.27
2023-04-21T02:44:31.116Z,12.50
2023-04-21T02:46:58.738Z,13.05
2023-04-21T02:49:26.333Z,13.70
2023-04-21T02:51:55.031Z,14.18
2023-04-21T02:54:23.683Z,10.68
2023-04-21T02:56:51.360Z,10.75
2023-04-21T02:59:19.452Z,11.32
2023-04-21T03:01:49.214Z,11.82
2023-04-21T03:04:17.306Z,12.32
2023-04-21T03:06:45.281Z,14.52
2023-04-21T03:09:13.269Z,11.73
2023-04-21T03:11:40.821Z,15.30
2023-04-21T03:14:08.348Z,15.60
2023-04-21T03:16:36.007Z,13.55
2023-04-21T03:19:05.016Z,10.00
2023-04-21T03:21:32.757Z,13.52
2023-04-21T03:24:00.384Z,10.82
2023-04-21T03:26:27.928Z,17.80
2023-04-21T03:28:55.634Z,15.07
2023-04-21T03:31:23.271Z,14.40
2023-04-21T03:33:51.054Z,12.05
2023-04-21T03:36:20.004Z,11.10
2023-04-21T03:38:47.605Z,15.80
2023-04-21T03:41:15.216Z,15.73
2023-04-21T03:43:43.107Z,14.57
2023-04-21T03:46:18.678Z,13.65
2023-04-21T03:48:46.666Z,13.10
2023-04-21T03:51:14.984Z,10.82
2023-04-21T03:53:43.959Z,11.32
2023-04-21T03:56:11.909Z,14.10
2023-04-21T03:58:39.470Z,18.17
2023-04-21T04:01:07.649Z,15.63
2023-04-21T04:03:35.458Z,10.80
2023-04-21T04:06:04.222Z,11.93
2023-04-21T04:08:31.999Z,11.68
2023-04-21T04:11:01.014Z,16.85
2023-04-21T04:13:29.397Z,11.68
2023-04-21T04:15:57.849Z,11.27
2023-04-21T04:18:25.474Z,10.98
2023-04-21T04:20:53.104Z,11.27
2023-04-21T04:23:20.662Z,11.75
2023-04-21T04:25:49.332Z,11.27
2023-04-21T04:28:18.297Z,15.63
2023-04-21T04:30:45.847Z,12.48
2023-04-21T04:33:13.501Z,10.40
2023-04-21T04:35:41.087Z,11.70
2023-04-21T04:38:08.654Z,14.18
2023-04-21T04:40:36.187Z,11.95
2023-04-21T04:43:03.761Z,14.65
2023-04-21T04:45:33.145Z,12.45
2023-04-21T04:48:01.042Z,11.10
2023-04-21T04:50:28.642Z,11.65
2023-04-21T04:52:56.367Z,13.13
2023-04-21T04:55:25.448Z,13.95
2023-04-21T04:57:53.099Z,13.48
2023-04-21T05:00:21.366Z,13.57
2023-04-21T05:02:50.336Z,14.02
2023-04-21T05:05:18.050Z,12.43
2023-04-21T05:07:45.773Z,12.02
2023-04-21T05:10:13.308Z,14.70
2023-04-21T05:12:40.989Z,12.82
2023-04-21T05:15:09.704Z,10.93
2023-04-21T05:17:37.338Z,15.05
2023-04-21T05:20:07.866Z,10.38
2023-04-21T05:22:38.042Z,10.25
2023-04-21T05:25:06.333Z,10.10
2023-04-21T05:27:34.946Z,9.85
2023-04-21T05:30:02.550Z,13.32
2023-04-21T05:32:30.314Z,11.95
2023-04-21T05:34:59.836Z,14.85
2023-04-21T05:37:28.788Z,11.32
2023-04-21T05:39:56.328Z,12.48
2023-04-21T05:42:23.899Z,12.35
2023-04-21T05:44:51.436Z,13.60
2023-04-21T05:47:18.998Z,12.65
2023-04-21T05:49:50.408Z,11.40
2023-04-21T05:52:18.600Z,11.07
2023-04-21T05:54:47.528Z,11.65
2023-04-21T05:57:16.293Z,12.93
2023-04-21T05:59:43.960Z,14.38
2023-04-21T06:02:12.235Z,10.40
2023-04-21T06:04:40.104Z,9.82
2023-04-21T06:07:09.660Z,11.00
2023-04-21T06:09:38.306Z,10.48
2023-04-21T06:12:07.867Z,10.90
2023-04-21T06:14:35.640Z,8.90
2023-04-21T06:17:03.307Z,14.38
2023-04-21T06:19:31.022Z,11.30
2023-04-21T06:21:58.673Z,14.35
2023-04-21T06:24:26.290Z,11.70
2023-04-21T06:26:53.985Z,10.05
2023-04-21T06:29:23.140Z,9.68
2023-04-21T06:31:51.091Z,11.27
2023-04-21T06:34:20.875Z,10.50
2023-04-21T06:36:48.618Z,11.43
2023-04-21T06:39:16.337Z,10.63
2023-04-21T06:41:43.998Z,12.48
2023-04-21T06:44:13.983Z,11.85
2023-04-21T06:46:43.509Z,10.38
2023-04-21T06:49:11.955Z,9.30
2023-04-21T06:51:39.949Z,10.25
2023-04-21T06:54:07.904Z,8.85
2023-04-21T06:56:35.633Z,9.55
2023-04-21T06:59:03.424Z,9.50
2023-04-21T07:01:31.158Z,10.02
2023-04-21T07:04:00.909Z,12.77
2023-04-21T07:06:28.701Z,9.68
2023-04-21T07:08:56.647Z,11.70
2023-04-21T07:11:24.551Z,14.63
2023-04-21T07:13:55.465Z,9.55
2023-04-21T07:16:24.506Z,13.13
2023-04-21T07:18:52.217Z,15.25
2023-04-21T07:21:21.118Z,9.82
2023-04-21T07:23:48.757Z,12.38
2023-04-21T07:26:17.992Z,10.18
2023-04-21T07:28:45.562Z,14.15
2023-04-21T07:31:13.157Z,11.57
2023-04-21T07:33:41.077Z,9.43
2023-04-21T07:36:09.309Z,12.88
2023-04-21T07:38:38.660Z,9.32
2023-04-21T07:41:06.639Z,9.52
2023-04-21T07:43:34.440Z,11.60
2023-04-21T07:46:02.149Z,9.00
2023-04-21T07:48:29.881Z,10.40
2023-04-21T07:50:58.267Z,14.20
2023-04-21T07:53:26.657Z,9.93
2023-04-21T07:56:00.258Z,9.73
2023-04-21T07:58:28.573Z,9.60
2023-04-21T08:00:56.432Z,10.20
2023-04-21T08:03:24.754Z,8.45
2023-04-21T08:05:54.197Z,11.18
2023-04-21T08:08:22.078Z,11.30
2023-04-21T08:10:49.871Z,11.05
2023-04-21T08:13:21.034Z,11.68
2023-04-21T08:15:49.423Z,10.15
2023-04-21T08:18:21.223Z,9.35
2023-04-21T08:20:52.392Z,10.25
2023-04-21T08:23:20.426Z,12.60
2023-04-21T08:25:48.357Z,11.32
2023-04-21T08:28:16.272Z,12.35
2023-04-21T08:30:45.325Z,8.13
2023-04-21T08:33:14.006Z,8.57
2023-04-21T08:35:54.908Z,14.43
2023-04-21T08:38:29.484Z,12.95
2023-04-21T08:41:00.969Z,9.00
2023-04-21T08:43:30.016Z,11.07
2023-04-21T08:45:59.374Z,11.02
2023-04-21T08:48:28.936Z,11.25
2023-04-21T08:50:57.234Z,11.30
2023-04-21T08:53:25.174Z,9.73
2023-04-21T08:56:07.694Z,10.55
2023-04-21T08:58:38.972Z,8.93
2023-04-21T09:01:08.096Z,10.25
2023-04-21T09:03:36.041Z,7.43
2023-04-21T09:06:06.115Z,9.32
2023-04-21T09:08:34.724Z,9.70
2023-04-21T09:11:02.540Z,8.82
2023-04-21T09:13:32.343Z,8.98
2023-04-21T09:16:01.045Z,14.68
2023-04-21T09:18:36.351Z,9.52
2023-04-21T09:21:08.873Z,11.35
2023-04-21T09:23:44.052Z,7.82
2023-04-21T09:26:12.074Z,12.80
2023-04-21T09:28:42.830Z,11.23
2023-04-21T09:31:20.112Z,8.95
2023-04-21T09:33:57.613Z,11.90
2023-04-21T09:36:28.844Z,11.32
2023-04-21T09:39:20.458Z,8.75
2023-04-21T09:41:46.950Z,8.90
2023-04-21T09:44:14.822Z,8.73
2023-04-21T09:46:44.710Z,9.88
2023-04-21T09:49:17.429Z,12.10
2023-04-21T09:52:06.101Z,10.10
2023-04-21T09:54:35.248Z,12.57
2023-04-21T09:57:05.159Z,9.38
2023-04-21T09:59:36.146Z,10.65
2023-04-21T10:02:07.280Z,10.57
2023-04-21T10:04:38.527Z,8.52
2023-04-21T10:07:07.543Z,10.40
2023-04-21T10:09:40.179Z,11.10
2023-04-21T10:12:09.692Z,8.05
2023-04-21T10:14:37.743Z,8.07
2023-04-21T10:17:06.876Z,9.02
2023-04-21T10:19:40.070Z,8.18
2023-04-21T10:22:09.571Z,8.52
2023-04-21T10:24:39.935Z,7.88
2023-04-21T10:27:11.779Z,7.55
2023-04-21T10:29:52.523Z,8.95
2023-04-21T10:32:39.933Z,15.30
2023-04-21T10:35:11.865Z,9.00
2023-04-21T10:37:41.386Z,7.35
2023-04-21T10:43:45.929Z,9.25
2023-04-21T10:46:36.309Z,8.07
2023-04-21T10:49:08.853Z,8.02
2023-04-21T10:52:05.505Z,8.60
2023-04-21T10:54:41.558Z,9.30
2023-04-21T10:57:11.340Z,7.05
2023-04-21T10:59:39.844Z,8.40
2023-04-21T11:02:08.833Z,10.30
2023-04-21T11:04:37.077Z,7.20
2023-04-21T11:07:12.090Z,9.18
2023-04-21T11:09:41.431Z,8.55
2023-04-21T11:12:11.171Z,7.55
2023-04-21T11:14:40.563Z,8.80
2023-04-21T11:17:13.597Z,10.15
2023-04-21T11:19:41.644Z,9.90
2023-04-21T11:22:10.665Z,9.85
2023-04-21T11:24:38.379Z,8.90
2023-04-21T11:27:09.346Z,9.02
2023-04-21T11:29:37.046Z,7.82
2023-04-21T11:32:07.629Z,6.43
2023-04-21T11:34:36.427Z,7.10
2023-04-21T11:37:04.020Z,8.82
2023-04-21T11:39:33.071Z,7.68
2023-04-21T11:42:02.085Z,9.23
2023-04-21T11:44:34.533Z,7.05
2023-04-21T11:47:12.994Z,6.97
2023-04-21T11:49:46.351Z,7.15
2023-04-21T11:52:21.432Z,9.77
2023-04-21T11:54:55.633Z,6.07
2023-04-21T11:57:24.636Z,8.90
2023-04-21T11:59:52.562Z,7.75
2023-04-21T12:02:26.396Z,7.75
2023-04-21T12:05:02.963Z,10.25
2023-04-21T12:07:32.463Z,9.05
2023-04-21T12:10:03.097Z,8.95
2023-04-21T12:12:31.080Z,8.18
2023-04-21T12:14:59.152Z,10.15
2023-04-21T12:17:26.862Z,6.28
2023-04-21T12:19:54.687Z,11.48
2023-04-21T12:22:23.677Z,9.68
2023-04-21T12:24:51.358Z,8.32
2023-04-21T12:27:21.610Z,8.98
2023-04-21T12:29:49.260Z,7.47
2023-04-21T12:32:17.100Z,8.00
2023-04-21T12:34:44.796Z,6.45
2023-04-21T12:37:12.426Z,7.82
2023-04-21T12:39:40.066Z,7.90
2023-04-21T12:42:07.665Z,7.20
2023-04-21T12:44:36.653Z,7.05
2023-04-21T12:47:04.255Z,7.65
2023-04-21T12:49:32.155Z,9.73
2023-04-21T12:52:00.477Z,7.78
2023-04-21T12:54:28.097Z,7.30
2023-04-21T12:56:55.898Z,7.75
2023-04-21T12:59:23.453Z,7.70
2023-04-21T13:01:52.475Z,6.50
2023-04-21T13:04:20.400Z,8.35
2023-04-21T13:06:48.247Z,7.15
2023-04-21T13:09:15.832Z,9.93
2023-04-21T13:11:43.368Z,7.15
2023-04-21T13:14:11.109Z,9.98
2023-04-21T13:16:38.911Z,7.93
2023-04-21T13:19:07.780Z,7.97
2023-04-21T13:21:35.486Z,9.90
2023-04-21T13:24:03.310Z,7.45
2023-04-21T13:26:33.474Z,6.63
2023-04-21T13:29:01.044Z,8.27
2023-04-21T13:31:28.834Z,6.97
2023-04-21T13:33:56.697Z,7.75
2023-04-21T13:36:25.736Z,7.85
2023-04-21T13:38:53.864Z,9.18
2023-04-21T13:41:21.634Z,8.10
2023-04-21T13:43:49.810Z,6.70
2023-04-21T13:46:17.459Z,7.65
2023-04-21T13:48:46.196Z,6.30
2023-04-21T13:51:13.880Z,6.78
2023-04-21T13:53:42.801Z,7.20
2023-04-21T13:56:12.510Z,6.57
2023-04-21T13:58:40.151Z,6.85
2023-04-21T14:01:07.995Z,7.50
2023-04-21T14:03:35.998Z,7.25
2023-04-21T14:06:03.863Z,8.90
2023-04-21T14:08:31.454Z,6.80
2023-04-21T14:11:00.452Z,10.07
2023-04-21T14:13:37.311Z,7.80
2023-04-21T14:16:08.231Z,6.82
2023-04-21T14:18:36.384Z,7.18
2023-04-21T14:21:03.973Z,7.43
2023-04-21T14:23:31.506Z,8.20
2023-04-21T14:26:00.767Z,8.32
2023-04-21T14:28:28.666Z,8.45
2023-04-21T14:30:56.168Z,8.82
2023-04-21T14:33:23.771Z,7.32
2023-04-21T14:35:52.143Z,9.35
2023-04-21T14:38:19.892Z,8.73
2023-04-21T14:40:49.649Z,8.50
2023-04-21T14:43:18.611Z,7.30
2023-04-21T14:45:46.285Z,10.73
2023-04-21T14:48:14.760Z,9.10
2023-04-21T14:50:42.427Z,10.43
2023-04-21T14:53:10.105Z,7.03
2023-04-21T14:55:37.675Z,8.63
2023-04-21T14:58:05.248Z,7.63
2023-04-21T15:00:34.745Z,6.60
2023-04-21T15:03:02.554Z,6.72
2023-04-21T15:05:30.422Z,11.05
2023-04-21T15:07:58.040Z,9.40
2023-04-21T15:10:25.535Z,8.13
2023-04-21T15:12:53.288Z,7.13
2023-04-21T15:15:20.890Z,7.03
2023-04-21T15:17:49.983Z,7.65
2023-04-21T15:20:17.560Z,8.30
2023-04-21T15:22:45.244Z,8.70
2023-04-21T15:25:12.774Z,11.27
2023-04-21T15:27:41.118Z,6.85
2023-04-21T15:30:09.514Z,8.75
2023-04-21T15:32:37.085Z,10.43
2023-04-21T15:35:07.097Z,8.02
2023-04-21T15:37:35.066Z,8.43
2023-04-21T15:40:04.660Z,7.30
2023-04-21T15:42:32.366Z,7.13
2023-04-21T15:45:02.066Z,7.78
2023-04-21T15:47:29.622Z,7.43
2023-04-21T15:49:57.115Z,6.60
2023-04-21T15:52:26.209Z,6.75
2023-04-21T15:54:53.792Z,6.68
2023-04-21T15:57:21.529Z,5.90
2023-04-21T15:59:49.044Z,7.40
2023-04-21T16:02:16.804Z,6.65
2023-04-21T16:04:44.913Z,5.68
2023-04-21T16:07:13.015Z,6.30
2023-04-21T16:09:41.951Z,5.75
2023-04-21T16:12:10.481Z,8.63
2023-04-21T16:14:53.580Z,6.68
2023-04-21T16:17:26.701Z,6.38
2023-04-21T16:19:54.452Z,7.18
2023-04-21T16:22:22.118Z,6.45
2023-04-21T16:24:52.899Z,6.65
2023-04-21T16:27:20.861Z,6.60
2023-04-21T16:29:49.033Z,5.75
2023-04-21T16:32:16.661Z,6.20
2023-04-21T16:34:44.232Z,6.90
2023-04-21T16:37:11.860Z,6.28
2023-04-21T16:39:39.492Z,6.68
2023-04-21T16:42:08.388Z,7.35
2023-04-21T16:44:36.206Z,6.55
2023-04-21T16:47:04.172Z,8.80
2023-04-21T16:49:31.787Z,7.80
2023-04-21T16:51:59.447Z,6.90
2023-04-21T16:54:26.996Z,7.68
2023-04-21T16:56:54.576Z,8.20
2023-04-21T16:59:24.476Z,7.15
2023-04-21T17:01:52.299Z,7.25
2023-04-21T17:04:19.933Z,7.90
2023-04-21T17:06:48.423Z,6.85
2023-04-21T17:09:16.038Z,8.93
2023-04-21T17:11:43.819Z,10.75
2023-04-21T17:14:12.553Z,7.10
2023-04-21T17:16:41.567Z,6.75
2023-04-21T17:19:09.106Z,8.73
2023-04-21T17:21:36.827Z,7.55
2023-04-21T17:24:04.706Z,6.93
2023-04-21T17:26:32.364Z,10.25
2023-04-21T17:29:00.367Z,8.30
2023-04-21T17:31:29.432Z,6.78
2023-04-21T17:33:58.476Z,8.45
2023-04-21T17:36:29.256Z,8.88
2023-04-21T17:38:56.902Z,8.40
2023-04-21T17:41:24.710Z,7.35
2023-04-21T17:43:52.488Z,7.78
2023-04-21T17:46:20.133Z,9.02
2023-04-21T17:48:47.760Z,7.45
2023-04-21T17:51:19.114Z,8.27
2023-04-21T17:53:47.049Z,7.82
2023-04-21T17:56:15.276Z,8.73
2023-04-21T17:58:42.972Z,7.38
2023-04-21T18:01:10.584Z,8.73
2023-04-21T18:03:41.345Z,8.82
2023-04-21T18:06:10.613Z,7.18
2023-04-21T18:08:39.601Z,5.88
2023-04-21T18:11:07.246Z,8.57
2023-04-21T18:13:34.863Z,6.93
2023-04-21T18:16:02.394Z,8.88
2023-04-21T18:18:29.968Z,7.65
2023-04-21T18:20:58.532Z,7.57
2023-04-21T18:23:26.282Z,9.90
2023-04-21T18:25:55.185Z,7.63
2023-04-21T18:28:22.762Z,6.93
2023-04-21T18:30:50.988Z,9.48
2023-04-21T18:33:18.841Z,10.40
2023-04-21T18:35:46.398Z,11.15
2023-04-21T18:38:13.973Z,10.32
2023-04-21T18:40:41.840Z,8.25
2023-04-21T18:43:11.152Z,7.07
2023-04-21T18:45:39.427Z,8.20
2023-04-21T18:48:07.023Z,8.48
2023-04-21T18:50:39.342Z,11.77
2023-04-21T18:53:08.047Z,7.93
2023-04-21T18:55:36.405Z,10.40
2023-04-21T18:58:04.156Z,8.05
2023-04-21T19:00:37.013Z,7.35
2023-04-21T19:03:05.438Z,8.20
2023-04-21T19:05:34.887Z,7.10
2023-04-21T19:08:02.503Z,6.78
2023-04-21T19:10:30.155Z,6.78
2023-04-21T19:12:58.117Z,8.35
2023-04-21T19:15:26.252Z,9.80
2023-04-21T19:17:55.925Z,9.68
2023-04-21T19:20:23.560Z,8.75
2023-04-21T19:22:51.348Z,8.65
2023-04-21T19:25:18.952Z,10.93
2023-04-21T19:27:47.751Z,7.28
2023-04-21T19:30:15.985Z,11.45
2023-04-21T19:32:43.477Z,7.70
2023-04-21T19:35:12.443Z,10.52
2023-04-21T19:37:40.192Z,9.95
2023-04-21T19:40:09.280Z,9.85
2023-04-21T19:42:38.879Z,12.40
2023-04-21T19:45:10.068Z,9.27
2023-04-21T19:47:37.698Z,8.85
2023-04-21T19:50:06.410Z,9.30
2023-04-21T19:52:35.454Z,7.63
2023-04-21T19:55:04.547Z,9.00
2023-04-21T19:57:32.165Z,7.38
2023-04-21T19:59:59.704Z,8.95
2023-04-21T20:02:28.322Z,7.85
2023-04-21T20:04:56.126Z,6.22
2023-04-21T20:07:23.864Z,7.22
2023-04-21T20:09:52.895Z,7.40
2023-04-21T20:12:20.666Z,10.40
2023-04-21T20:14:48.209Z,8.00
2023-04-21T20:17:15.873Z,5.20
2023-04-21T20:19:43.474Z,8.63
2023-04-21T20:22:11.080Z,9.00
2023-04-21T20:24:38.607Z,9.93
2023-04-21T20:27:08.803Z,8.27
2023-04-21T20:29:36.749Z,8.82
2023-04-21T20:32:04.664Z,6.15
2023-04-21T20:34:32.289Z,8.57
2023-04-21T20:37:00.050Z,8.65
2023-04-21T20:39:27.785Z,8.63
2023-04-21T20:42:08.817Z,5.82
2023-04-21T20:44:42.258Z,8.30
2023-04-21T20:47:10.994Z,9.00
2023-04-21T20:49:39.820Z,7.22
2023-04-21T20:52:07.770Z,7.80
2023-04-21T20:54:35.438Z,6.55
2023-04-21T20:57:03.189Z,7.07
2023-04-21T20:59:30.802Z,6.82
2023-04-21T21:01:59.865Z,6.32
2023-04-21T21:04:27.586Z,6.20
2023-04-21T21:06:56.009Z,7.10
2023-04-21T21:09:23.601Z,7.68
2023-04-21T21:11:51.182Z,8.15
2023-04-21T21:14:18.824Z,7.20
2023-04-21T21:16:46.405Z,8.45
2023-04-21T21:19:15.648Z,6.30
2023-04-21T21:21:43.245Z,5.93
2023-04-21T21:24:11.451Z,5.25
2023-04-21T21:26:42.541Z,7.53
2023-04-21T21:29:10.482Z,7.75
2023-04-21T21:31:38.138Z,5.55
2023-04-21T21:34:06.048Z,7.10
2023-04-21T21:36:34.980Z,7.50
2023-04-21T21:39:02.658Z,5.13
2023-04-21T21:41:30.333Z,6.25
2023-04-21T21:43:57.818Z,5.28
2023-04-21T21:46:25.449Z,5.22
2023-04-21T21:48:53.044Z,6.43
2023-04-21T21:51:20.626Z,8.05
2023-04-21T21:53:49.616Z,6.43
2023-04-21T21:56:17.128Z,9.02
2023-04-21T21:58:44.740Z,5.85
2023-04-21T22:01:12.334Z,6.63
2023-04-21T22:03:40.153Z,5.72
2023-04-21T22:06:09.146Z,6.65
2023-04-21T22:08:37.217Z,5.47
2023-04-21T22:11:06.766Z,4.75
2023-04-21T22:13:34.346Z,8.25
2023-04-21T22:16:02.306Z,5.72
2023-04-21T22:18:30.221Z,7.43
2023-04-21T22:20:58.942Z,5.45
2023-04-21T22:23:26.790Z,5.90
2023-04-21T22:25:54.438Z,5.10
2023-04-21T22:28:23.399Z,4.93
2023-04-21T22:30:51.267Z,5.05
2023-04-21T22:33:19.553Z,5.07
2023-04-21T22:35:47.164Z,6.03
2023-04-21T22:38:28.795Z,6.32
2023-04-21T22:40:57.078Z,6.60
2023-04-21T22:43:26.125Z,4.97
2023-04-21T22:45:53.773Z,5.03
2023-04-21T22:48:21.423Z,4.43
2023-04-21T22:50:49.008Z,8.30
2023-04-21T22:53:16.533Z,6.90
2023-04-21T22:55:44.261Z,3.95
2023-04-21T22:58:14.311Z,3.72
2023-04-21T23:00:44.931Z,3.70
2023-04-21T23:03:12.687Z,10.02
2023-04-21T23:05:40.936Z,5.95
2023-04-21T23:08:08.470Z,4.72
2023-04-21T23:10:36.252Z,5.70
2023-04-21T23:13:03.868Z,4.40
2023-04-21T23:15:32.055Z,7.75
2023-04-21T23:18:01.076Z,5.85
2023-04-21T23:20:28.777Z,4.20
2023-04-21T23:22:56.383Z,3.75
2023-04-21T23:25:24.131Z,4.88
2023-04-21T23:27:51.719Z,4.90
2023-04-21T23:30:19.485Z,4.40
2023-04-21T23:32:47.189Z,4.50
2023-04-21T23:35:16.128Z,4.35
2023-04-21T23:37:43.724Z,3.75
2023-04-21T23:40:12.611Z,4.45
2023-04-21T23:42:40.270Z,4.88
2023-04-21T23:45:09.312Z,6.55
2023-04-21T23:47:37.271Z,3.95
2023-04-21T23:50:05.694Z,4.55
2023-04-21T23:52:34.955Z,4.85
2023-04-21T23:55:02.627Z,4.95
2023-04-21T23:57:30.182Z,9.38
2023-04-21T23:59:57.978Z,9.43
